Airfield :
LOGIN :

Register | Disclaimer

   EN    FR    IT 

 










Legend :    VFR   Marginal VFR   IFR   Intensive IFR   Very Intensive IFR
Visi :
Ceiling :
>= 8 km
>= 3000ft
5 to 8 km
1000 to 3000 ft
1500m to 5 km
500 to 1000 ft
800 to 1500m
200 to 500 ft
< 800m
< 200 ft
Symbols :   Thunderstorms  Fog  Heavy snow  Heavy precipitations  Wind > 20 kt
SIGMETs :     Misc.  Thunderstorms  Icing  Turbulence  Mountain Waves  Volcanic Ashes







- Airport Elevation : 788 ft
- IATA code : DCM
- Download approach charts


LFCK - Castres-Mazamet

CURRENT METAR :
  • 201900Z AUTO 11008KT 9999 BKN036 OVC045 25/18 Q1019 NOSIG

EXPIRED METARs :
  • 201830Z AUTO 14006KT 9999 BKN038 OVC044 25/19 Q1019 NOSIG
  • 201800Z AUTO 12009KT 090V150 9999 OVC036 25/19 Q1019 NOSIG
  • 201730Z AUTO 12012KT 9999 OVC037 25/19 Q1019 NOSIG
  • 201700Z AUTO 12010KT 090V150 9999 OVC041 26/19 Q1019 TEMPO 12018G28KT
  • 201630Z AUTO 11010KT 9999 OVC042/// ///CB 26/19 Q1019 TEMPO 12018G28KT BECMG BKN040

TAF TAF LFCK
Valid from the 20 at 18:00 until the 21 at 03:00 UTC


201700Z 2018/2103 12010KT 9999 BKN040
PROB40
TEMPO 2100/2103 BKN020
No reported NOTAMs for that airfield.



MET'MAP, your aeronautical weather chart ! - Copyright ORBIFLY December 2007 - Disclaimer

ORBIFLY MET'MAP TEAM :

Programming & Development : Alexandra Zaïnal
Concept & Development : Baudouin d'Aumeries
Co-Development & Prog : Marc-Olivier Méhu
Technical & hardware support : Manuel Goepfert

Contact : metmap@orbifly.com




SOURCES & CREDITS :

   NOAA